createdAt,value
2019-03-23T00:02:11.494Z,6.03
2019-03-23T00:04:34.912Z,5.60
2019-03-23T00:06:58.380Z,5.50
2019-03-23T00:09:21.796Z,5.10
2019-03-23T00:11:45.228Z,5.50
2019-03-23T00:14:08.669Z,6.20
2019-03-23T00:16:32.088Z,5.47
2019-03-23T00:18:55.527Z,5.70
2019-03-23T00:21:18.946Z,5.43
2019-03-23T00:23:42.415Z,4.70
2019-03-23T00:26:05.837Z,5.57
2019-03-23T00:28:29.652Z,5.30
2019-03-23T00:30:53.104Z,5.73
2019-03-23T00:33:16.521Z,5.20
2019-03-23T00:35:39.985Z,5.00
2019-03-23T00:38:03.452Z,5.27
2019-03-23T00:40:27.148Z,5.63
2019-03-23T00:42:50.568Z,5.37
2019-03-23T00:45:14.105Z,5.40
2019-03-23T00:47:37.844Z,6.17
2019-03-23T00:50:01.305Z,5.33
2019-03-23T00:52:24.752Z,6.03
2019-03-23T00:54:48.209Z,5.20
2019-03-23T00:57:11.642Z,5.63
2019-03-23T00:59:35.159Z,5.13
2019-03-23T01:01:58.591Z,5.50
2019-03-23T01:04:22.048Z,6.00
2019-03-23T01:06:52.048Z,6.00
2019-03-23T01:09:10.736Z,5.80
2019-03-23T01:11:34.521Z,5.60
2019-03-23T01:13:57.939Z,5.60
2019-03-23T01:16:21.392Z,5.87
2019-03-23T01:18:44.807Z,5.27
2019-03-23T01:21:08.270Z,5.47
2019-03-23T01:23:31.688Z,5.37
2019-03-23T01:25:55.194Z,5.57
2019-03-23T01:28:18.567Z,5.13
2019-03-23T01:30:42.023Z,5.63
2019-03-23T01:33:05.510Z,5.43
2019-03-23T01:35:28.968Z,6.07
2019-03-23T01:37:52.416Z,5.93
2019-03-23T01:40:15.913Z,5.67
2019-03-23T01:42:39.353Z,5.40
2019-03-23T01:45:02.775Z,6.17
2019-03-23T01:47:26.225Z,5.30
2019-03-23T01:49:49.638Z,5.77
2019-03-23T01:52:13.105Z,5.53
2019-03-23T01:54:36.568Z,5.90
2019-03-23T01:57:00.317Z,5.50
2019-03-23T01:59:23.780Z,5.30
2019-03-23T02:01:47.202Z,4.67
2019-03-23T02:04:10.639Z,5.23
2019-03-23T02:06:34.107Z,4.80
2019-03-23T02:08:57.543Z,5.17
2019-03-23T02:11:20.964Z,5.13
2019-03-23T02:13:44.423Z,5.40
2019-03-23T02:16:08.226Z,5.27
2019-03-23T02:18:31.684Z,5.50
2019-03-23T02:20:56.191Z,5.37
2019-03-23T02:23:19.647Z,4.43
2019-03-23T02:25:43.074Z,4.73
2019-03-23T02:28:06.516Z,4.57
2019-03-23T02:30:29.975Z,4.80
2019-03-23T02:32:53.397Z,5.50
2019-03-23T02:35:16.865Z,4.47
2019-03-23T02:37:40.312Z,5.83
2019-03-23T02:40:04.998Z,4.70
2019-03-23T02:42:28.417Z,4.90
2019-03-23T02:44:51.888Z,5.43
2019-03-23T02:47:15.304Z,6.00
2019-03-23T02:49:38.765Z,6.00
2019-03-23T02:52:02.206Z,5.77
2019-03-23T02:54:25.634Z,5.60
2019-03-23T02:56:49.050Z,4.40
2019-03-23T02:59:12.501Z,4.40
2019-03-23T03:01:35.927Z,4.90
2019-03-23T03:03:59.384Z,4.83
2019-03-23T03:06:22.802Z,5.70
2019-03-23T03:08:46.264Z,5.07
2019-03-23T03:11:09.683Z,5.50
2019-03-23T03:13:33.149Z,6.23
2019-03-23T03:15:56.612Z,6.30
2019-03-23T03:18:20.025Z,6.33
2019-03-23T03:20:43.499Z,5.97
2019-03-23T03:23:06.914Z,6.37
2019-03-23T03:25:30.333Z,6.50
2019-03-23T03:27:53.797Z,4.67
2019-03-23T03:30:17.321Z,4.57
2019-03-23T03:32:40.762Z,4.53
2019-03-23T03:35:05.048Z,6.27
2019-03-23T03:37:28.467Z,5.60
2019-03-23T03:39:51.892Z,5.60
2019-03-23T03:42:15.362Z,5.50
2019-03-23T03:44:38.819Z,5.03
2019-03-23T03:47:02.279Z,5.23
2019-03-23T03:49:25.692Z,5.50
2019-03-23T03:51:49.156Z,5.40
2019-03-23T03:54:12.594Z,5.70
2019-03-23T03:56:36.327Z,4.83
2019-03-23T03:58:59.752Z,5.70
2019-03-23T04:01:23.205Z,5.83
2019-03-23T04:03:46.667Z,6.00
2019-03-23T04:06:10.094Z,5.73
2019-03-23T04:08:33.556Z,5.70
2019-03-23T04:10:56.986Z,5.13
2019-03-23T04:13:20.774Z,5.27
2019-03-23T04:15:44.269Z,5.40
2019-03-23T04:18:07.734Z,6.60
2019-03-23T04:20:31.488Z,4.93
2019-03-23T04:22:54.955Z,5.00
2019-03-23T04:25:18.421Z,5.60
2019-03-23T04:27:41.877Z,6.00
2019-03-23T04:30:06.840Z,5.77
2019-03-23T04:32:30.282Z,5.53
2019-03-23T04:34:53.738Z,5.83
2019-03-23T04:37:17.159Z,5.60
2019-03-23T04:39:40.856Z,5.73
2019-03-23T04:42:04.420Z,6.27
2019-03-23T04:44:27.841Z,6.23
2019-03-23T04:46:51.313Z,5.87
2019-03-23T04:49:14.768Z,5.20
2019-03-23T04:51:38.189Z,5.00
2019-03-23T04:54:01.631Z,5.23
2019-03-23T04:56:25.098Z,5.87
2019-03-23T04:58:48.526Z,6.03
2019-03-23T05:01:11.971Z,6.43
2019-03-23T05:03:35.385Z,6.43
2019-03-23T05:05:58.849Z,6.58
2019-03-23T05:08:29.192Z,6.27
2019-03-23T05:10:47.537Z,7.43
2019-03-23T05:13:10.998Z,7.43
2019-03-23T05:15:34.422Z,6.30
2019-03-23T05:17:57.848Z,6.83
2019-03-23T05:20:29.339Z,6.80
2019-03-23T05:22:52.760Z,5.97
2019-03-23T05:25:24.848Z,6.67
2019-03-23T05:27:48.311Z,7.07
2019-03-23T05:30:11.874Z,6.12
2019-03-23T05:32:35.335Z,6.90
2019-03-23T05:34:58.791Z,6.07
2019-03-23T05:37:22.218Z,5.77
2019-03-23T05:39:45.632Z,5.63
2019-03-23T05:42:09.080Z,5.60
2019-03-23T05:44:32.535Z,6.03
2019-03-23T05:46:55.953Z,5.80
2019-03-23T05:49:19.409Z,5.67
2019-03-23T05:51:42.864Z,6.47
2019-03-23T05:54:06.602Z,6.70
2019-03-23T05:56:30.049Z,6.70
2019-03-23T05:58:53.505Z,6.70
2019-03-23T06:01:16.931Z,6.33
2019-03-23T06:03:40.381Z,6.50
2019-03-23T06:06:03.848Z,6.40
2019-03-23T06:08:27.262Z,5.70
2019-03-23T06:10:50.705Z,5.95
2019-03-23T06:13:14.119Z,6.73
2019-03-23T06:15:37.654Z,6.73
2019-03-23T06:18:01.418Z,5.80
2019-03-23T06:20:24.839Z,7.23
2019-03-23T06:22:48.304Z,7.03
2019-03-23T06:25:11.727Z,7.57
2019-03-23T06:27:35.176Z,8.07
2019-03-23T06:29:58.605Z,7.80
2019-03-23T06:32:22.134Z,9.17
2019-03-23T06:34:45.603Z,10.93
2019-03-23T06:37:09.072Z,20.50
2019-03-23T06:39:32.498Z,11.80
2019-03-23T06:41:56.030Z,9.90
2019-03-23T06:44:19.834Z,8.83
2019-03-23T06:46:43.318Z,7.50
2019-03-23T06:49:06.738Z,8.47
2019-03-23T06:51:30.163Z,7.50
2019-03-23T06:53:53.614Z,9.67
2019-03-23T06:56:17.078Z,16.13
2019-03-23T06:58:40.548Z,20.60
2019-03-23T07:01:04.020Z,21.87
2019-03-23T07:03:27.440Z,19.23
2019-03-23T07:05:51.188Z,19.10
2019-03-23T07:08:14.621Z,14.50
2019-03-23T07:10:38.075Z,11.90
2019-03-23T07:13:01.505Z,10.80
2019-03-23T07:15:24.962Z,11.10
2019-03-23T07:17:48.391Z,11.60
2019-03-23T07:20:13.495Z,11.77
2019-03-23T07:22:37.025Z,11.33
2019-03-23T07:25:00.571Z,11.17
2019-03-23T07:27:24.007Z,10.20
2019-03-23T07:29:47.473Z,11.97
2019-03-23T07:32:11.246Z,13.48
2019-03-23T07:34:34.719Z,11.57
2019-03-23T07:36:58.148Z,11.50
2019-03-23T07:39:27.226Z,12.50
2019-03-23T07:41:46.757Z,11.90
2019-03-23T07:44:10.223Z,11.53
2019-03-23T07:46:33.651Z,10.63
2019-03-23T07:48:57.107Z,11.40
2019-03-23T07:51:20.582Z,12.20
2019-03-23T07:53:44.005Z,11.87
2019-03-23T07:56:07.467Z,11.50
2019-03-23T07:58:30.930Z,10.60
2019-03-23T08:00:54.363Z,10.73
2019-03-23T08:03:17.795Z,11.50
2019-03-23T08:05:41.267Z,11.93
2019-03-23T08:08:04.721Z,10.83
2019-03-23T08:10:29.927Z,11.17
2019-03-23T08:12:53.385Z,10.30
2019-03-23T08:15:16.816Z,9.37
2019-03-23T08:17:40.278Z,9.77
2019-03-23T08:20:04.645Z,9.87
2019-03-23T08:22:28.123Z,9.53
2019-03-23T08:24:51.555Z,9.20
2019-03-23T08:27:15.401Z,9.40
2019-03-23T08:29:38.828Z,9.33
2019-03-23T08:32:02.261Z,8.90
2019-03-23T08:34:26.098Z,8.70
2019-03-23T08:36:49.568Z,8.53
2019-03-23T08:39:12.987Z,8.93
2019-03-23T08:41:36.521Z,9.17
2019-03-23T08:43:59.947Z,8.27
2019-03-23T08:46:23.415Z,9.07
2019-03-23T08:48:46.862Z,8.70
2019-03-23T08:51:10.291Z,9.40
2019-03-23T08:53:33.763Z,10.73
2019-03-23T08:55:57.241Z,11.37
2019-03-23T08:58:27.640Z,11.47
2019-03-23T09:00:51.072Z,10.63
2019-03-23T09:03:14.541Z,12.17
2019-03-23T09:05:37.974Z,10.27
2019-03-23T09:08:01.443Z,10.63
2019-03-23T09:10:24.878Z,9.47
2019-03-23T09:12:49.083Z,9.33
2019-03-23T09:15:12.641Z,9.90
2019-03-23T09:17:36.106Z,9.73
2019-03-23T09:20:00.041Z,11.45
2019-03-23T09:22:23.494Z,9.80
2019-03-23T09:24:46.950Z,11.10
2019-03-23T09:27:12.555Z,10.87
2019-03-23T09:29:35.567Z,10.90
2019-03-23T09:31:59.041Z,11.33
2019-03-23T09:34:22.542Z,11.37
2019-03-23T09:36:46.013Z,10.27
2019-03-23T09:39:09.438Z,11.23
2019-03-23T09:41:33.170Z,11.00
2019-03-23T09:43:56.649Z,10.63
2019-03-23T09:46:20.084Z,11.50
2019-03-23T09:48:43.556Z,11.40
2019-03-23T09:51:07.015Z,11.17
2019-03-23T09:53:30.493Z,11.40
2019-03-23T09:55:53.931Z,11.77
2019-03-23T09:58:17.402Z,11.57
2019-03-23T10:00:40.836Z,12.03
2019-03-23T10:03:04.310Z,12.03
2019-03-23T10:05:27.741Z,12.40
2019-03-23T10:07:51.166Z,12.40
2019-03-23T10:10:21.830Z,12.43
2019-03-23T10:12:39.810Z,12.27
2019-03-23T10:15:04.183Z,11.67
2019-03-23T10:17:27.646Z,12.50
2019-03-23T10:19:51.082Z,12.97
2019-03-23T10:22:14.542Z,12.20
2019-03-23T10:24:38.018Z,12.63
2019-03-23T10:27:01.451Z,11.90
2019-03-23T10:29:24.918Z,12.23
2019-03-23T10:31:48.388Z,13.40
2019-03-23T10:34:11.811Z,12.27
2019-03-23T10:36:35.247Z,13.07
2019-03-23T10:38:58.727Z,12.77
2019-03-23T10:41:22.165Z,13.40
2019-03-23T10:43:45.646Z,12.60
2019-03-23T10:46:09.078Z,12.57
2019-03-23T10:48:32.512Z,12.93
2019-03-23T10:50:55.991Z,12.90
2019-03-23T10:53:23.148Z,13.10
2019-03-23T10:55:44.646Z,13.73
2019-03-23T10:58:08.076Z,12.60
2019-03-23T11:00:31.549Z,12.97
2019-03-23T11:02:54.986Z,13.83
2019-03-23T11:05:18.461Z,13.47
2019-03-23T11:07:41.903Z,13.20
2019-03-23T11:10:10.543Z,12.87
2019-03-23T11:12:33.969Z,14.53
2019-03-23T11:14:57.432Z,13.63
2019-03-23T11:17:20.898Z,13.10
2019-03-23T11:19:44.686Z,12.60
2019-03-23T11:22:08.137Z,12.67
2019-03-23T11:24:31.931Z,13.43
2019-03-23T11:26:55.327Z,13.23
2019-03-23T11:29:18.806Z,12.90
2019-03-23T11:31:42.232Z,14.40
2019-03-23T11:34:05.710Z,13.47
2019-03-23T11:36:29.142Z,12.10
2019-03-23T11:38:52.618Z,13.43
2019-03-23T11:41:16.046Z,14.00
2019-03-23T11:43:39.516Z,13.77
2019-03-23T11:46:02.990Z,13.67
2019-03-23T11:48:26.422Z,13.97
2019-03-23T11:50:49.895Z,13.50
2019-03-23T11:53:13.362Z,13.67
2019-03-23T11:55:37.061Z,14.00
2019-03-23T11:58:00.890Z,13.50
2019-03-23T12:00:24.326Z,14.17
2019-03-23T12:02:47.759Z,14.43
2019-03-23T12:05:11.398Z,14.43
2019-03-23T12:07:34.832Z,14.90
2019-03-23T12:09:58.314Z,15.23
2019-03-23T12:12:21.773Z,14.63
2019-03-23T12:14:45.254Z,14.80
2019-03-23T12:17:08.683Z,15.37
2019-03-23T12:19:32.164Z,15.93
2019-03-23T12:21:55.613Z,15.87
2019-03-23T12:24:19.045Z,16.53
2019-03-23T12:26:42.517Z,17.23
2019-03-23T12:29:05.948Z,16.80
2019-03-23T12:31:29.424Z,16.75
2019-03-23T12:33:52.896Z,17.77
2019-03-23T12:36:16.333Z,17.82
2019-03-23T12:38:39.764Z,17.42
2019-03-23T12:41:14.175Z,18.17
2019-03-23T12:43:28.402Z,18.05
2019-03-23T12:45:51.881Z,18.40
2019-03-23T12:48:15.353Z,17.85
2019-03-23T12:50:39.120Z,17.32
2019-03-23T12:53:02.559Z,16.62
2019-03-23T12:55:26.022Z,17.55
2019-03-23T12:57:49.462Z,17.10
2019-03-23T13:00:17.260Z,18.67
2019-03-23T13:02:40.694Z,17.42
2019-03-23T13:05:06.069Z,16.95
2019-03-23T13:07:29.550Z,16.93
2019-03-23T13:09:53.388Z,15.93
2019-03-23T13:12:16.826Z,17.57
2019-03-23T13:14:40.299Z,16.45
2019-03-23T13:17:04.076Z,16.40
2019-03-23T13:19:27.507Z,15.85
2019-03-23T13:21:50.983Z,17.03
2019-03-23T13:24:14.439Z,15.83
2019-03-23T13:26:38.233Z,17.55
2019-03-23T13:29:01.690Z,16.15
2019-03-23T13:31:25.128Z,16.15
2019-03-23T13:33:48.585Z,16.95
2019-03-23T13:36:12.010Z,17.52
2019-03-23T13:38:35.498Z,16.90
2019-03-23T13:40:59.340Z,15.80
2019-03-23T13:43:22.771Z,16.17
2019-03-23T13:45:46.258Z,16.32
2019-03-23T13:48:09.692Z,16.75
2019-03-23T13:50:33.478Z,16.60
2019-03-23T13:52:56.982Z,15.90
2019-03-23T13:55:31.575Z,17.20
2019-03-23T13:57:55.082Z,16.73
2019-03-23T14:00:18.478Z,15.63
2019-03-23T14:02:41.967Z,16.70
2019-03-23T14:05:15.622Z,15.30
2019-03-23T14:07:31.496Z,15.70
2019-03-23T14:09:54.973Z,15.60
2019-03-23T14:12:18.444Z,16.17
2019-03-23T14:14:41.917Z,16.40
2019-03-23T14:17:05.507Z,16.33
2019-03-23T14:19:28.980Z,16.30
2019-03-23T14:21:52.727Z,15.63
2019-03-23T14:24:16.159Z,16.03
2019-03-23T14:26:39.631Z,15.97
2019-03-23T14:29:03.059Z,17.40
2019-03-23T14:31:26.542Z,16.70
2019-03-23T14:33:49.978Z,16.37
2019-03-23T14:36:13.435Z,16.00
2019-03-23T14:38:37.173Z,16.40
2019-03-23T14:41:00.636Z,16.23
2019-03-23T14:43:24.069Z,15.70
2019-03-23T14:45:47.543Z,16.47
2019-03-23T14:48:10.972Z,15.90
2019-03-23T14:50:34.408Z,16.70
2019-03-23T14:52:57.873Z,15.83
2019-03-23T14:55:21.310Z,16.05
2019-03-23T14:57:44.788Z,27.02
2019-03-23T15:00:10.442Z,35.08
2019-03-23T15:02:33.823Z,34.23
2019-03-23T15:04:57.616Z,33.85
2019-03-23T15:07:21.050Z,36.55
2019-03-23T15:09:44.511Z,38.55
2019-03-23T15:12:15.066Z,39.92
2019-03-23T15:14:33.142Z,39.38
2019-03-23T15:16:56.617Z,41.68
2019-03-23T15:19:20.362Z,41.35
2019-03-23T15:21:43.839Z,41.02
2019-03-23T15:24:07.385Z,43.60
2019-03-23T15:26:30.824Z,44.35
2019-03-23T15:28:54.599Z,44.27
2019-03-23T15:31:18.033Z,45.17
2019-03-23T15:33:41.502Z,43.60
2019-03-23T15:36:04.973Z,44.08
2019-03-23T15:38:28.401Z,45.17
2019-03-23T15:40:51.860Z,45.63
2019-03-23T15:43:15.309Z,48.40
2019-03-23T15:45:38.781Z,47.03
2019-03-23T15:48:02.212Z,47.20
2019-03-23T15:50:25.669Z,46.63
2019-03-23T15:52:49.122Z,45.23
2019-03-23T15:55:12.803Z,47.67
2019-03-23T15:57:36.754Z,47.07
2019-03-23T16:00:00.518Z,47.53
2019-03-23T16:02:23.950Z,46.03
2019-03-23T16:04:47.433Z,47.63
2019-03-23T16:07:10.867Z,47.07
2019-03-23T16:09:34.296Z,48.83
2019-03-23T16:11:57.841Z,53.17
2019-03-23T16:14:21.278Z,46.07
2019-03-23T16:16:44.727Z,46.33
2019-03-23T16:19:08.168Z,65.67
2019-03-23T16:21:31.628Z,46.60
2019-03-23T16:23:55.056Z,47.60
2019-03-23T16:26:18.509Z,47.33
2019-03-23T16:28:41.977Z,49.67
2019-03-23T16:31:05.505Z,48.40
2019-03-23T16:33:29.022Z,49.23
2019-03-23T16:35:52.501Z,47.43
2019-03-23T16:38:16.024Z,51.70
2019-03-23T16:40:39.826Z,52.27
2019-03-23T16:43:03.258Z,50.40
2019-03-23T16:45:26.685Z,51.87
2019-03-23T16:47:50.160Z,49.67
2019-03-23T16:50:13.705Z,48.70
2019-03-23T16:52:38.512Z,49.00
2019-03-23T16:55:01.961Z,49.83
2019-03-23T16:57:25.433Z,47.90
2019-03-23T16:59:49.159Z,50.30
2019-03-23T17:02:13.036Z,50.83
2019-03-23T17:04:36.459Z,48.50
2019-03-23T17:06:59.893Z,48.57
2019-03-23T17:09:23.359Z,48.63
2019-03-23T17:11:46.814Z,47.47
2019-03-23T17:14:10.381Z,52.93
2019-03-23T17:16:33.821Z,48.30
2019-03-23T17:18:57.252Z,47.43
2019-03-23T17:21:20.728Z,46.00
2019-03-23T17:23:44.195Z,45.30
2019-03-23T17:26:07.627Z,44.47
2019-03-23T17:28:31.100Z,45.07
2019-03-23T17:30:54.528Z,43.83
2019-03-23T17:33:18.005Z,40.17
2019-03-23T17:35:41.479Z,42.50
2019-03-23T17:38:05.300Z,40.03
2019-03-23T17:40:28.766Z,38.70
2019-03-23T17:42:52.516Z,37.57
2019-03-23T17:45:15.951Z,40.20
2019-03-23T17:47:39.408Z,37.50
2019-03-23T17:50:02.843Z,38.27
2019-03-23T17:52:26.320Z,37.27
2019-03-23T17:54:49.795Z,37.23
2019-03-23T17:57:13.260Z,38.53
2019-03-23T17:59:36.692Z,37.73
2019-03-23T18:02:00.522Z,42.93
2019-03-23T18:04:23.959Z,38.80
2019-03-23T18:06:47.679Z,39.23
2019-03-23T18:09:11.218Z,38.27
2019-03-23T18:11:35.511Z,35.10
2019-03-23T18:13:58.973Z,37.27
2019-03-23T18:16:22.404Z,35.67
2019-03-23T18:18:45.839Z,34.80
2019-03-23T18:21:09.312Z,34.33
2019-03-23T18:23:32.740Z,35.37
2019-03-23T18:25:56.220Z,33.73
2019-03-23T18:28:19.654Z,34.97
2019-03-23T18:30:43.924Z,34.43
2019-03-23T18:33:07.771Z,34.83
2019-03-23T18:35:31.562Z,32.83
2019-03-23T18:37:55.035Z,34.90
2019-03-23T18:40:18.814Z,32.93
2019-03-23T18:42:42.285Z,34.80
2019-03-23T18:45:06.970Z,33.10
2019-03-23T18:47:30.434Z,33.70
2019-03-23T18:49:53.870Z,32.53
2019-03-23T18:52:17.353Z,34.20
2019-03-23T18:54:40.778Z,33.93
2019-03-23T18:57:04.285Z,36.40
2019-03-23T18:59:27.765Z,35.33
2019-03-23T19:01:51.212Z,35.83
2019-03-23T19:04:14.674Z,33.43
2019-03-23T19:06:38.112Z,34.07
2019-03-23T19:09:01.674Z,33.73
2019-03-23T19:11:25.104Z,33.13
2019-03-23T19:13:48.593Z,30.97
2019-03-23T19:16:12.008Z,32.50
2019-03-23T19:18:35.482Z,32.70
2019-03-23T19:20:58.906Z,32.60
2019-03-23T19:23:22.381Z,32.53
2019-03-23T19:25:46.099Z,30.73
2019-03-23T19:28:09.568Z,32.90
2019-03-23T19:30:33.025Z,31.10
2019-03-23T19:32:56.495Z,31.50
2019-03-23T19:35:19.923Z,32.73
2019-03-23T19:37:43.355Z,32.97
2019-03-23T19:40:07.086Z,32.47
2019-03-23T19:42:30.515Z,31.80
2019-03-23T19:44:53.978Z,33.03
2019-03-23T19:47:17.711Z,32.00
2019-03-23T19:49:41.133Z,31.97
2019-03-23T19:52:04.598Z,33.10
2019-03-23T19:54:28.294Z,30.97
2019-03-23T19:56:51.759Z,33.50
2019-03-23T19:59:15.189Z,32.40
2019-03-23T20:01:38.662Z,29.63
2019-03-23T20:04:02.360Z,30.53
2019-03-23T20:06:26.124Z,29.27
2019-03-23T20:08:49.890Z,28.70
2019-03-23T20:11:13.362Z,29.47
2019-03-23T20:13:36.786Z,28.50
2019-03-23T20:16:00.249Z,28.47
2019-03-23T20:18:23.708Z,27.93
2019-03-23T20:20:47.140Z,28.80
2019-03-23T20:23:10.609Z,27.57
2019-03-23T20:25:34.042Z,27.37
2019-03-23T20:27:57.509Z,26.07
2019-03-23T20:30:21.221Z,29.13
2019-03-23T20:32:44.647Z,26.77
2019-03-23T20:35:08.755Z,26.23
2019-03-23T20:37:32.221Z,28.53
2019-03-23T20:39:55.696Z,28.97
2019-03-23T20:42:19.114Z,28.93
2019-03-23T20:44:42.538Z,28.77
2019-03-23T20:47:06.267Z,29.10
2019-03-23T20:49:29.768Z,26.03
2019-03-23T20:51:53.268Z,33.03
2019-03-23T20:54:16.725Z,29.10
2019-03-23T20:56:40.153Z,27.07
2019-03-23T20:59:03.595Z,28.40
2019-03-23T21:01:27.309Z,35.87
2019-03-23T21:03:50.774Z,31.70
2019-03-23T21:06:14.195Z,27.70
2019-03-23T21:08:37.652Z,31.03
2019-03-23T21:11:01.120Z,28.13
2019-03-23T21:13:24.628Z,28.43
2019-03-23T21:15:48.096Z,30.03
2019-03-23T21:18:11.560Z,30.43
2019-03-23T21:20:34.985Z,29.13
2019-03-23T21:22:58.450Z,29.97
2019-03-23T21:25:21.881Z,33.80
2019-03-23T21:27:45.311Z,31.50
2019-03-23T21:30:14.208Z,37.70
2019-03-23T21:32:37.956Z,32.43
2019-03-23T21:35:01.673Z,24.67
2019-03-23T21:37:25.107Z,28.43
2019-03-23T21:39:48.580Z,28.90
2019-03-23T21:42:12.013Z,26.37
2019-03-23T21:44:35.483Z,26.00
2019-03-23T21:46:58.915Z,26.83
2019-03-23T21:49:22.704Z,28.00
2019-03-23T21:51:46.146Z,28.53
2019-03-23T21:54:09.566Z,28.97
2019-03-23T21:56:33.036Z,24.63
2019-03-23T21:58:56.459Z,26.30
2019-03-23T22:01:20.012Z,28.63
2019-03-23T22:03:43.444Z,27.93
2019-03-23T22:06:06.909Z,26.13
2019-03-23T22:08:30.419Z,28.13
2019-03-23T22:10:53.891Z,26.03
2019-03-23T22:13:17.375Z,25.93
2019-03-23T22:15:40.795Z,27.67
2019-03-23T22:18:04.363Z,28.00
2019-03-23T22:20:27.855Z,24.63
2019-03-23T22:22:51.286Z,27.20
2019-03-23T22:25:14.721Z,27.73
2019-03-23T22:27:38.272Z,27.93
2019-03-23T22:30:01.747Z,30.03
2019-03-23T22:32:25.147Z,31.63
2019-03-23T22:34:49.387Z,28.77
2019-03-23T22:37:12.931Z,25.60
2019-03-23T22:39:36.379Z,27.83
2019-03-23T22:41:59.824Z,25.17
2019-03-23T22:44:23.250Z,26.70
2019-03-23T22:46:46.715Z,26.87
2019-03-23T22:49:10.140Z,26.97
2019-03-23T22:51:33.592Z,27.67
2019-03-23T22:53:57.061Z,28.63
2019-03-23T22:56:20.488Z,29.60
2019-03-23T22:58:43.953Z,29.60
2019-03-23T23:01:07.544Z,29.47
2019-03-23T23:03:31.021Z,30.10
2019-03-23T23:05:54.487Z,28.07
2019-03-23T23:08:17.912Z,25.30
2019-03-23T23:10:41.330Z,27.20
2019-03-23T23:13:05.133Z,25.50
2019-03-23T23:15:28.903Z,24.80
2019-03-23T23:17:52.334Z,24.43
2019-03-23T23:20:15.870Z,25.20
2019-03-23T23:22:39.315Z,24.63
2019-03-23T23:25:03.784Z,25.90
2019-03-23T23:27:27.207Z,28.23
2019-03-23T23:29:50.632Z,28.27
2019-03-23T23:32:14.102Z,28.30
2019-03-23T23:34:37.529Z,27.27
2019-03-23T23:37:01.002Z,24.83
2019-03-23T23:39:24.426Z,27.37
2019-03-23T23:41:47.855Z,25.07
2019-03-23T23:44:11.322Z,26.77
2019-03-23T23:46:35.154Z,28.73
2019-03-23T23:48:58.586Z,25.77
2019-03-23T23:51:22.049Z,28.23
2019-03-23T23:53:45.475Z,26.03
2019-03-23T23:56:09.388Z,26.83
2019-03-23T23:58:32.842Z,28.27
